createdAt,value
2019-06-20T00:00:46.953Z,100419.48
2019-06-20T00:03:17.205Z,100409.47
2019-06-20T00:05:47.482Z,100408.86
2019-06-20T00:08:18.984Z,100410.45
2019-06-20T00:10:49.835Z,100406.47
2019-06-20T00:13:23.637Z,100410.25
2019-06-20T00:16:02.885Z,100419.40
2019-06-20T00:18:33.481Z,100418.66
2019-06-20T00:21:07.072Z,100429.00
2019-06-20T00:23:37.378Z,100435.66
2019-06-20T00:26:07.586Z,100433.64
2019-06-20T00:28:37.842Z,100422.69
2019-06-20T00:31:09.744Z,100433.39
2019-06-20T00:33:40.060Z,100430.19
2019-06-20T00:36:10.320Z,100429.33
2019-06-20T00:38:40.528Z,100417.84
2019-06-20T00:41:10.806Z,100442.02
2019-06-20T00:43:41.565Z,100441.36
2019-06-20T00:46:11.889Z,100439.87
2019-06-20T00:48:42.431Z,100440.46
2019-06-20T00:51:12.627Z,100445.13
2019-06-20T00:53:44.002Z,100445.55
2019-06-20T00:56:15.764Z,100451.50
2019-06-20T00:58:46.004Z,100458.44
2019-06-20T01:01:17.466Z,100466.11
2019-06-20T01:03:47.873Z,100470.75
2019-06-20T01:06:19.635Z,100469.47
2019-06-20T01:08:51.886Z,100474.56
2019-06-20T01:11:22.072Z,100483.47
2019-06-20T01:13:52.992Z,100479.44
2019-06-20T01:16:23.909Z,100482.52
2019-06-20T01:18:54.117Z,100487.47
2019-06-20T01:21:24.673Z,100489.97
2019-06-20T01:23:58.554Z,100492.92
2019-06-20T01:26:30.323Z,100492.02
2019-06-20T01:29:00.548Z,100498.98
2019-06-20T01:31:33.732Z,100500.98
2019-06-20T01:34:07.659Z,100503.80
2019-06-20T01:36:38.377Z,100500.77
2019-06-20T01:39:08.991Z,100503.69
2019-06-20T01:41:39.155Z,100494.67
2019-06-20T01:44:09.377Z,100508.91
2019-06-20T01:46:40.424Z,100506.81
2019-06-20T01:49:10.632Z,100513.22
2019-06-20T01:51:43.163Z,100515.34
2019-06-20T01:54:13.386Z,100514.08
2019-06-20T01:56:44.230Z,100511.72
2019-06-20T01:59:14.403Z,100515.54
2019-06-20T02:01:44.630Z,100518.58
2019-06-20T02:04:14.976Z,100517.01
2019-06-20T02:06:48.222Z,100514.68
2019-06-20T02:09:18.432Z,100521.06
2019-06-20T02:11:48.642Z,100524.14
2019-06-20T02:14:19.951Z,100522.64
2019-06-20T02:16:50.618Z,100527.69
2019-06-20T02:19:20.866Z,100530.89
2019-06-20T02:21:51.109Z,100522.74
2019-06-20T02:24:23.734Z,100533.72
2019-06-20T02:26:54.033Z,100543.06
2019-06-20T02:29:24.749Z,100536.88
2019-06-20T02:31:57.821Z,100530.03
2019-06-20T02:34:28.044Z,100529.06
2019-06-20T02:36:59.785Z,100526.84
2019-06-20T02:39:30.845Z,100524.40
2019-06-20T02:42:01.217Z,100526.50
2019-06-20T02:44:31.434Z,100528.19
2019-06-20T02:47:01.640Z,100531.39
2019-06-20T02:49:34.508Z,100527.34
2019-06-20T02:52:05.203Z,100532.25
2019-06-20T02:54:37.852Z,100531.02
2019-06-20T02:57:08.127Z,100537.05
2019-06-20T02:59:39.004Z,100538.49
2019-06-20T03:02:10.956Z,100540.08
2019-06-20T03:04:45.491Z,100535.58
2019-06-20T03:07:14.404Z,100542.34
2019-06-20T03:09:45.101Z,100543.31
2019-06-20T03:12:15.307Z,100545.87
2019-06-20T03:14:45.995Z,100543.78
2019-06-20T03:17:17.732Z,100540.24
2019-06-20T03:19:47.924Z,100550.42
2019-06-20T03:22:19.069Z,100543.91
2019-06-20T03:24:49.249Z,100546.98
2019-06-20T03:27:19.748Z,100552.00
2019-06-20T03:29:51.509Z,100547.31
2019-06-20T03:32:25.528Z,100556.33
2019-06-20T03:34:56.147Z,100561.78
2019-06-20T03:37:26.350Z,100569.61
2019-06-20T03:39:56.558Z,100572.92
2019-06-20T03:42:26.884Z,100574.00
2019-06-20T03:45:02.427Z,100576.92
2019-06-20T03:47:32.017Z,100581.15
2019-06-20T03:50:02.223Z,100580.26
2019-06-20T03:52:33.228Z,100588.09
2019-06-20T03:55:03.936Z,100579.27
2019-06-20T03:57:34.201Z,100589.76
2019-06-20T04:00:04.968Z,100587.91
2019-06-20T04:02:35.363Z,100590.51
2019-06-20T04:05:07.152Z,100597.19
2019-06-20T04:07:37.378Z,100599.75
2019-06-20T04:10:07.657Z,100605.01
2019-06-20T04:12:38.207Z,100597.42
2019-06-20T04:15:18.640Z,100603.02
2019-06-20T04:17:41.335Z,100606.80
2019-06-20T04:20:11.550Z,100611.77
2019-06-20T04:22:41.887Z,100611.71
2019-06-20T04:25:12.088Z,100610.92
2019-06-20T04:27:42.858Z,100610.65
2019-06-20T04:30:13.169Z,100616.14
2019-06-20T04:32:46.591Z,100617.30
2019-06-20T04:35:17.928Z,100619.75
2019-06-20T04:37:49.578Z,100623.26
2019-06-20T04:40:22.649Z,100620.31
2019-06-20T04:42:54.833Z,100621.48
2019-06-20T04:45:56.277Z,100622.50
2019-06-20T04:48:26.508Z,100626.95
2019-06-20T04:50:58.120Z,100618.05
2019-06-20T04:53:28.743Z,100628.94
2019-06-20T04:55:58.947Z,100630.69
2019-06-20T04:58:29.173Z,100634.69
2019-06-20T05:00:59.436Z,100641.66
2019-06-20T05:03:30.439Z,100636.51
2019-06-20T05:06:01.052Z,100638.64
2019-06-20T05:08:31.286Z,100643.33
2019-06-20T05:11:01.493Z,100643.87
2019-06-20T05:13:31.805Z,100644.89
2019-06-20T05:16:02.475Z,100648.58
2019-06-20T05:18:32.705Z,100653.95
2019-06-20T05:21:02.948Z,100648.72
2019-06-20T05:23:33.169Z,100647.88
2019-06-20T05:26:03.840Z,100645.99
2019-06-20T05:28:34.049Z,100646.83
2019-06-20T05:31:04.291Z,100652.75
2019-06-20T05:33:35.381Z,100656.36
2019-06-20T05:36:13.160Z,100653.89
2019-06-20T05:38:43.449Z,100658.33
2019-06-20T05:41:14.751Z,100656.36
2019-06-20T05:43:45.072Z,100661.42
2019-06-20T05:46:15.729Z,100656.64
2019-06-20T05:48:47.039Z,100662.78
2019-06-20T05:51:17.256Z,100659.91
2019-06-20T05:53:48.122Z,100666.12
2019-06-20T05:56:18.795Z,100666.61
2019-06-20T05:58:49.120Z,100670.11
2019-06-20T06:01:19.323Z,100667.16
2019-06-20T06:03:49.531Z,100671.72
2019-06-20T06:06:19.831Z,100671.73
2019-06-20T06:08:50.573Z,100676.17
2019-06-20T06:11:20.895Z,100683.24
2019-06-20T06:13:51.122Z,100682.33
2019-06-20T06:16:26.151Z,100695.48
2019-06-20T06:18:53.225Z,100689.97
2019-06-20T06:21:25.893Z,100693.19
2019-06-20T06:23:56.221Z,100690.20
2019-06-20T06:26:26.554Z,100700.55
2019-06-20T06:28:57.275Z,100696.22
2019-06-20T06:31:30.529Z,100702.59
2019-06-20T06:34:02.555Z,100703.95
2019-06-20T06:36:32.766Z,100712.09
2019-06-20T06:39:04.172Z,100702.73
2019-06-20T06:41:37.523Z,100701.69
2019-06-20T06:44:08.935Z,100700.41
2019-06-20T06:46:44.837Z,100703.55
2019-06-20T06:49:13.356Z,100700.66
2019-06-20T06:51:45.034Z,100697.65
2019-06-20T06:54:19.851Z,100694.16
2019-06-20T06:56:52.504Z,100691.30
2019-06-20T06:59:22.818Z,100698.16
2019-06-20T07:01:53.474Z,100699.50
2019-06-20T07:04:23.671Z,100691.06
2019-06-20T07:06:56.164Z,100696.92
2019-06-20T07:09:26.371Z,100699.27
2019-06-20T07:11:57.065Z,100700.66
2019-06-20T07:14:29.441Z,100699.36
2019-06-20T07:17:02.961Z,100702.28
2019-06-20T07:19:35.213Z,100698.62
2019-06-20T07:22:07.857Z,100704.56
2019-06-20T07:24:39.052Z,100701.35
2019-06-20T07:27:09.638Z,100709.62
2019-06-20T07:29:39.818Z,100712.84
2019-06-20T07:32:10.141Z,100706.92
2019-06-20T07:34:43.356Z,100705.81
2019-06-20T07:37:14.205Z,100705.22
2019-06-20T07:39:44.398Z,100699.58
2019-06-20T07:42:17.217Z,100709.88
2019-06-20T07:44:53.361Z,100705.02
2019-06-20T07:47:23.600Z,100707.50
2019-06-20T07:49:54.104Z,100707.16
2019-06-20T07:52:24.361Z,100710.41
2019-06-20T07:54:54.831Z,100706.70
2019-06-20T07:57:26.821Z,100701.94
2019-06-20T07:59:57.964Z,100705.95
2019-06-20T08:02:28.175Z,100704.00
2019-06-20T08:05:00.118Z,100698.92
2019-06-20T08:07:31.112Z,100709.95
2019-06-20T08:10:01.430Z,100712.86
2019-06-20T08:12:31.675Z,100712.94
2019-06-20T08:15:14.525Z,100711.58
2019-06-20T08:17:35.757Z,100708.36
2019-06-20T08:20:09.255Z,100707.21
2019-06-20T08:22:39.454Z,100705.37
2019-06-20T08:25:11.254Z,100717.45
2019-06-20T08:27:53.091Z,100714.41
2019-06-20T08:30:29.227Z,100723.30
2019-06-20T08:33:01.893Z,100724.28
2019-06-20T08:35:33.378Z,100730.52
2019-06-20T08:38:05.574Z,100716.70
2019-06-20T08:40:43.519Z,100717.52
2019-06-20T08:43:16.164Z,100717.18
2019-06-20T08:45:49.013Z,100725.59
2019-06-20T08:48:19.518Z,100715.73
2019-06-20T08:50:50.303Z,100718.31
2019-06-20T08:53:20.548Z,100717.66
2019-06-20T08:55:54.687Z,100719.64
2019-06-20T08:58:26.555Z,100719.73
2019-06-20T09:00:59.663Z,100722.92
2019-06-20T09:03:31.787Z,100726.53
2019-06-20T09:08:32.244Z,100729.09
2019-06-20T09:11:03.931Z,100736.78
2019-06-20T09:13:34.682Z,100729.63
2019-06-20T09:16:04.999Z,100724.38
2019-06-20T09:18:35.252Z,100721.41
2019-06-20T09:21:06.576Z,100721.96
2019-06-20T09:23:36.774Z,100724.42
2019-06-20T09:26:07.470Z,100732.23
2019-06-20T09:28:37.641Z,100737.36
2019-06-20T09:31:08.167Z,100738.48
2019-06-20T09:33:38.494Z,100733.22
2019-06-20T09:36:11.008Z,100735.80
2019-06-20T09:38:41.218Z,100745.77
2019-06-20T09:41:11.433Z,100730.99
2019-06-20T09:43:43.974Z,100740.98
2019-06-20T09:46:14.734Z,100738.03
2019-06-20T09:48:44.957Z,100735.14
2019-06-20T09:51:15.178Z,100742.60
2019-06-20T09:53:45.410Z,100741.66
2019-06-20T09:56:15.876Z,100743.83
2019-06-20T09:58:47.863Z,100747.44
2019-06-20T10:01:18.243Z,100745.24
2019-06-20T10:03:49.012Z,100745.55
2019-06-20T10:06:20.435Z,100739.31
2019-06-20T10:08:52.321Z,100746.83
2019-06-20T10:11:22.844Z,100747.47
2019-06-20T10:13:54.298Z,100734.01
2019-06-20T10:16:24.827Z,100741.23
2019-06-20T10:18:56.470Z,100742.08
2019-06-20T10:21:26.999Z,100742.11
2019-06-20T10:23:57.655Z,100732.71
2019-06-20T10:26:27.979Z,100734.08
2019-06-20T10:28:58.691Z,100735.02
2019-06-20T10:31:28.936Z,100739.45
2019-06-20T10:33:59.126Z,100747.88
2019-06-20T10:36:31.413Z,100743.31
2019-06-20T10:39:02.168Z,100743.52
2019-06-20T10:41:34.158Z,100734.75
2019-06-20T10:44:04.378Z,100737.89
2019-06-20T10:46:34.705Z,100743.44
2019-06-20T10:49:05.723Z,100744.15
2019-06-20T10:51:54.030Z,100745.66
2019-06-20T10:54:27.186Z,100750.73
2019-06-20T10:56:57.820Z,100744.02
2019-06-20T10:59:28.147Z,100741.11
2019-06-20T11:02:01.564Z,100736.70
2019-06-20T11:04:31.868Z,100748.95
2019-06-20T11:07:02.059Z,100739.93
2019-06-20T11:09:33.873Z,100743.38
2019-06-20T11:12:04.626Z,100745.89
2019-06-20T11:14:35.151Z,100747.81
2019-06-20T11:17:05.370Z,100745.95
2019-06-20T11:19:35.569Z,100750.91
2019-06-20T11:22:08.236Z,100739.93
2019-06-20T11:24:39.230Z,100744.16
2019-06-20T11:27:09.618Z,100738.51
2019-06-20T11:29:41.656Z,100730.37
2019-06-20T11:32:11.845Z,100738.88
2019-06-20T11:34:43.054Z,100714.31
2019-06-20T11:37:14.651Z,100730.77
2019-06-20T11:39:47.408Z,100721.17
2019-06-20T11:42:17.798Z,100729.14
2019-06-20T11:44:48.498Z,100718.63
2019-06-20T11:47:20.615Z,100719.13
2019-06-20T11:49:50.779Z,100721.34
2019-06-20T11:52:21.006Z,100716.29
2019-06-20T11:54:51.659Z,100717.64
2019-06-20T11:57:22.003Z,100719.31
2019-06-20T11:59:52.193Z,100715.82
2019-06-20T12:02:22.422Z,100717.47
2019-06-20T12:04:54.684Z,100715.14
2019-06-20T12:07:24.935Z,100713.52
2019-06-20T12:09:56.675Z,100707.83
2019-06-20T12:12:26.936Z,100708.77
2019-06-20T12:14:57.748Z,100710.33
2019-06-20T12:17:28.018Z,100710.73
2019-06-20T12:19:59.269Z,100713.09
2019-06-20T12:22:30.591Z,100707.93
2019-06-20T12:25:00.809Z,100708.00
2019-06-20T12:27:31.143Z,100706.23
2019-06-20T12:30:01.987Z,100702.58
2019-06-20T12:32:32.226Z,100704.63
2019-06-20T12:35:02.464Z,100698.53
2019-06-20T12:37:33.082Z,100699.08
2019-06-20T12:40:03.367Z,100703.34
2019-06-20T12:42:34.170Z,100707.13
2019-06-20T12:45:04.901Z,100709.62
2019-06-20T12:47:35.238Z,100705.06
2019-06-20T12:50:06.046Z,100709.88
2019-06-20T12:52:37.857Z,100710.73
2019-06-20T12:55:08.705Z,100720.91
2019-06-20T12:57:40.872Z,100714.52
2019-06-20T13:00:14.637Z,100715.03
2019-06-20T13:02:45.664Z,100728.20
2019-06-20T13:05:17.870Z,100730.70
2019-06-20T13:07:48.137Z,100736.72
2019-06-20T13:10:19.210Z,100735.64
2019-06-20T13:12:51.518Z,100740.86
2019-06-20T13:15:22.089Z,100740.49
2019-06-20T13:17:52.308Z,100748.02
2019-06-20T13:20:24.109Z,100749.67
2019-06-20T13:22:55.356Z,100760.84
2019-06-20T13:25:25.547Z,100764.48
2019-06-20T13:27:55.887Z,100770.35
2019-06-20T13:30:26.112Z,100775.89
2019-06-20T13:32:56.313Z,100773.72
2019-06-20T13:35:26.541Z,100780.30
2019-06-20T13:37:58.142Z,100781.35
2019-06-20T13:40:28.436Z,100778.55
2019-06-20T13:42:59.726Z,100782.00
2019-06-20T13:45:30.079Z,100792.73
2019-06-20T13:48:03.060Z,100787.30
2019-06-20T13:50:34.804Z,100785.56
2019-06-20T13:53:05.088Z,100797.62
2019-06-20T13:55:35.913Z,100793.27
2019-06-20T13:58:06.622Z,100804.81
2019-06-20T14:00:36.850Z,100808.11
2019-06-20T14:03:08.168Z,100797.83
2019-06-20T14:05:39.671Z,100790.67
2019-06-20T14:08:11.545Z,100786.94
2019-06-20T14:10:44.091Z,100796.84
2019-06-20T14:13:19.023Z,100796.89
2019-06-20T14:15:46.151Z,100804.90
2019-06-20T14:18:17.345Z,100798.70
2019-06-20T14:20:48.534Z,100803.96
2019-06-20T14:23:18.856Z,100806.22
2019-06-20T14:25:49.117Z,100811.45
2019-06-20T14:28:19.831Z,100803.26
2019-06-20T14:30:50.374Z,100809.59
2019-06-20T14:33:20.776Z,100809.46
2019-06-20T14:35:58.999Z,100806.34
2019-06-20T14:38:32.600Z,100809.93
2019-06-20T14:41:05.119Z,100812.55
2019-06-20T14:43:37.036Z,100819.53
2019-06-20T14:46:07.348Z,100818.93
2019-06-20T14:48:38.002Z,100821.49
2019-06-20T14:51:08.332Z,100820.23
2019-06-20T14:53:39.047Z,100823.85
2019-06-20T14:56:09.276Z,100823.23
2019-06-20T14:58:40.927Z,100821.92
2019-06-20T15:01:12.730Z,100829.80
2019-06-20T15:03:45.640Z,100822.63
2019-06-20T15:06:15.365Z,100817.13
2019-06-20T15:08:47.147Z,100821.04
2019-06-20T15:11:18.006Z,100823.44
2019-06-20T15:13:49.606Z,100824.17
2019-06-20T15:16:20.234Z,100822.56
2019-06-20T15:18:53.715Z,100826.64
2019-06-20T15:21:23.015Z,100823.32
2019-06-20T15:23:54.417Z,100820.49
2019-06-20T15:26:24.673Z,100823.39
2019-06-20T15:28:55.566Z,100823.89
2019-06-20T15:31:27.439Z,100822.14
2019-06-20T15:33:58.248Z,100823.50
2019-06-20T15:36:28.435Z,100814.77
2019-06-20T15:38:59.203Z,100817.54
2019-06-20T15:41:29.748Z,100816.01
2019-06-20T15:44:00.481Z,100815.96
2019-06-20T15:46:30.735Z,100817.02
2019-06-20T15:49:15.206Z,100817.02
2019-06-20T15:51:32.890Z,100817.41
2019-06-20T15:54:03.952Z,100816.72
2019-06-20T15:56:34.174Z,100818.10
2019-06-20T15:59:04.436Z,100815.88
2019-06-20T16:01:34.970Z,100825.39
2019-06-20T16:04:07.201Z,100818.56
2019-06-20T16:06:40.683Z,100820.63
2019-06-20T16:09:14.817Z,100822.34
2019-06-20T16:11:45.638Z,100814.65
2019-06-20T16:14:18.076Z,100817.70
2019-06-20T16:16:48.528Z,100823.50
2019-06-20T16:19:21.444Z,100819.13
2019-06-20T16:21:51.693Z,100821.42
2019-06-20T16:24:22.321Z,100824.08
2019-06-20T16:26:52.533Z,100827.08
2019-06-20T16:29:23.014Z,100832.14
2019-06-20T16:31:53.225Z,100831.63
2019-06-20T16:34:23.488Z,100835.88
2019-06-20T16:37:06.585Z,100834.38
2019-06-20T16:39:28.495Z,100837.80
2019-06-20T16:41:58.815Z,100834.88
2019-06-20T16:44:29.087Z,100831.14
2019-06-20T16:46:59.308Z,100834.35
2019-06-20T16:49:30.010Z,100832.34
2019-06-20T16:52:00.635Z,100826.70
2019-06-20T16:54:30.945Z,100829.75
2019-06-20T16:57:02.389Z,100826.51
2019-06-20T16:59:32.768Z,100831.06
2019-06-20T17:02:03.514Z,100837.24
2019-06-20T17:04:36.213Z,100838.80
2019-06-20T17:07:06.412Z,100843.84
2019-06-20T17:09:36.688Z,100848.38
2019-06-20T17:12:07.055Z,100850.94
2019-06-20T17:14:37.783Z,100847.27
2019-06-20T17:17:08.057Z,100851.53
2019-06-20T17:19:41.946Z,100849.11
2019-06-20T17:22:10.268Z,100842.83
2019-06-20T17:24:43.181Z,100848.77
2019-06-20T17:27:13.421Z,100842.83
2019-06-20T17:29:44.017Z,100843.50
2019-06-20T17:32:14.623Z,100848.61
2019-06-20T17:34:45.309Z,100845.02
2019-06-20T17:37:15.643Z,100844.77
2019-06-20T17:39:46.470Z,100844.40
2019-06-20T17:42:16.950Z,100849.91
2019-06-20T17:44:48.604Z,100851.91
2019-06-20T17:47:18.975Z,100857.98
2019-06-20T17:49:49.238Z,100858.27
2019-06-20T17:52:20.219Z,100861.80
2019-06-20T17:54:51.276Z,100866.21
2019-06-20T17:57:21.521Z,100871.74
2019-06-20T17:59:51.780Z,100865.03
2019-06-20T18:02:23.306Z,100874.37
2019-06-20T18:04:54.003Z,100877.89
2019-06-20T18:07:24.403Z,100880.79
2019-06-20T18:09:54.591Z,100876.02
2019-06-20T18:12:25.048Z,100880.94
2019-06-20T18:14:55.739Z,100887.14
2019-06-20T18:17:26.385Z,100882.92
2019-06-20T18:19:56.600Z,100880.79
2019-06-20T18:22:26.927Z,100883.11
2019-06-20T18:24:58.670Z,100884.77
2019-06-20T18:27:30.298Z,100888.58
2019-06-20T18:30:00.598Z,100883.63
2019-06-20T18:32:30.911Z,100886.68
2019-06-20T18:35:02.691Z,100891.65
2019-06-20T18:37:34.700Z,100886.67
2019-06-20T18:40:07.374Z,100886.16
2019-06-20T18:42:39.419Z,100893.50
2019-06-20T18:45:10.717Z,100892.56
2019-06-20T18:47:41.421Z,100891.33
2019-06-20T18:50:11.729Z,100893.83
2019-06-20T18:52:51.523Z,100907.21
2019-06-20T18:55:14.306Z,100901.91
2019-06-20T18:57:44.510Z,100903.02
2019-06-20T19:00:15.457Z,100904.31
2019-06-20T19:02:50.057Z,100910.97
2019-06-20T19:05:20.904Z,100924.33
2019-06-20T19:07:51.673Z,100946.13
2019-06-20T19:10:25.294Z,100947.88
2019-06-20T19:12:55.518Z,100950.91
2019-06-20T19:15:26.334Z,100958.56
2019-06-20T19:17:56.995Z,100957.91
2019-06-20T19:20:27.381Z,100958.92
2019-06-20T19:22:57.698Z,100972.12
2019-06-20T19:25:27.843Z,100976.06
2019-06-20T19:27:58.538Z,100987.77
2019-06-20T19:30:39.829Z,100983.82
2019-06-20T19:33:10.107Z,100992.44
2019-06-20T19:35:40.386Z,100994.41
2019-06-20T19:38:11.695Z,101002.42
2019-06-20T19:40:46.513Z,101000.09
2019-06-20T19:43:17.653Z,100998.73
2019-06-20T19:45:48.812Z,101004.75
2019-06-20T19:48:19.047Z,101009.20
2019-06-20T19:50:50.023Z,101009.19
2019-06-20T19:53:20.710Z,101017.05
2019-06-20T19:55:52.973Z,101016.33
2019-06-20T19:58:26.460Z,101016.69
2019-06-20T20:00:57.564Z,101020.13
2019-06-20T20:03:30.300Z,101020.73
2019-06-20T20:06:00.746Z,101027.24
2019-06-20T20:08:31.393Z,101029.61
2019-06-20T20:11:03.696Z,101032.53
2019-06-20T20:13:34.503Z,101036.95
2019-06-20T20:16:05.285Z,101036.23
2019-06-20T20:18:35.617Z,101034.87
2019-06-20T20:21:06.330Z,101035.20
2019-06-20T20:23:36.623Z,101034.72
2019-06-20T20:26:08.799Z,101036.94
2019-06-20T20:28:39.425Z,101039.27
2019-06-20T20:31:11.679Z,101036.51
2019-06-20T20:33:41.916Z,101032.31
2019-06-20T20:36:24.388Z,101037.44
2019-06-20T20:38:44.213Z,101044.34
2019-06-20T20:41:21.290Z,101040.73
2019-06-20T20:43:51.856Z,101041.72
2019-06-20T20:46:23.918Z,101046.87
2019-06-20T20:48:54.196Z,101048.97
2019-06-20T20:51:25.180Z,101048.00
2019-06-20T20:53:58.845Z,101049.45
2019-06-20T20:56:29.085Z,101052.02
2019-06-20T20:58:59.290Z,101048.70
2019-06-20T21:01:35.316Z,101051.38
2019-06-20T21:04:04.636Z,101043.25
2019-06-20T21:06:34.915Z,101047.91
2019-06-20T21:09:06.795Z,101056.89
2019-06-20T21:11:38.474Z,101060.56
2019-06-20T21:14:09.560Z,101057.83
2019-06-20T21:16:40.256Z,101060.08
2019-06-20T21:19:10.518Z,101068.95
2019-06-20T21:21:40.801Z,101074.78
2019-06-20T21:24:11.869Z,101076.03
2019-06-20T21:26:49.539Z,101083.94
2019-06-20T21:29:15.372Z,101078.11
2019-06-20T21:31:45.813Z,101083.09
2019-06-20T21:34:16.835Z,101084.63
2019-06-20T21:36:47.162Z,101087.29
2019-06-20T21:39:19.020Z,101088.50
2019-06-20T21:41:49.862Z,101094.06
2019-06-20T21:44:20.617Z,101093.52
2019-06-20T21:46:51.106Z,101094.11
2019-06-20T21:49:21.971Z,101098.55
2019-06-20T21:51:52.294Z,101096.56
2019-06-20T21:54:23.171Z,101093.33
2019-06-20T21:56:53.416Z,101091.59
2019-06-20T21:59:23.618Z,101097.67
2019-06-20T22:01:54.457Z,101094.41
2019-06-20T22:04:25.572Z,101099.61
2019-06-20T22:06:56.266Z,101107.34
2019-06-20T22:09:26.776Z,101107.87
2019-06-20T22:11:58.032Z,101114.04
2019-06-20T22:14:32.440Z,101116.23
2019-06-20T22:17:02.275Z,101117.71
2019-06-20T22:19:32.518Z,101119.94
2019-06-20T22:22:03.173Z,101125.69
2019-06-20T22:24:33.903Z,101122.25
2019-06-20T22:27:18.282Z,101127.33
2019-06-20T22:29:48.850Z,101117.67
2019-06-20T22:32:19.244Z,101124.09
2019-06-20T22:34:50.004Z,101132.35
2019-06-20T22:37:23.256Z,101128.67
2019-06-20T22:39:54.802Z,101132.15
2019-06-20T22:42:26.914Z,101131.23
2019-06-20T22:44:57.673Z,101129.44
2019-06-20T22:47:28.997Z,101130.56
2019-06-20T22:49:59.255Z,101128.59
2019-06-20T22:52:30.065Z,101137.70
2019-06-20T22:55:00.717Z,101131.30
2019-06-20T22:57:32.152Z,101134.13
2019-06-20T23:00:02.382Z,101129.45
2019-06-20T23:02:32.719Z,101134.00
2019-06-20T23:05:04.721Z,101139.55
2019-06-20T23:07:35.396Z,101143.98
2019-06-20T23:10:10.491Z,101145.34
2019-06-20T23:12:38.427Z,101149.88
2019-06-20T23:15:11.025Z,101151.23
2019-06-20T23:17:41.806Z,101149.39
2019-06-20T23:20:19.139Z,101150.89
2019-06-20T23:23:02.334Z,101140.70
2019-06-20T23:25:40.655Z,101143.88
2019-06-20T23:28:13.093Z,101158.86
2019-06-20T23:30:44.892Z,101161.84
2019-06-20T23:33:17.802Z,101165.03
2019-06-20T23:36:03.045Z,101162.18
2019-06-20T23:38:36.252Z,101159.58
2019-06-20T23:41:18.655Z,101161.73
2019-06-20T23:43:50.701Z,101161.52
2019-06-20T23:46:22.231Z,101165.78
2019-06-20T23:49:02.807Z,101162.45
2019-06-20T23:51:46.978Z,101152.50
2019-06-20T23:54:19.168Z,101158.67
2019-06-20T23:56:50.573Z,101155.26
2019-06-20T23:59:20.841Z,101162.25
